Observation data for Hereford on 05/25/2019      Previous  Date  Next       Current Mesonet Observations  Soil Data  Daily Summary Page  Observations in Plain Language
KHES 250500Z 17013G18KT 19/13 A2996 RMK A01 T01920133  RH  071%=      5-min Rain = 0
KHES 250505Z 17014G19KT 20/14 A2996 RMK A01 T01950137  RH  072%=      5-min Rain = 0
KHES 250510Z 17013G18KT 20/14 A2996 RMK A01 T01960139  RH  072%=      5-min Rain = 0
KHES 250515Z 17014G19KT 20/14 A2996 RMK A01 T01960139  RH  073%=      5-min Rain = 0
KHES 250520Z 17013G18KT 20/14 A2996 RMK A01 T01960139  RH  073%=      5-min Rain = 0
KHES 250525Z 17014KT 20/14 A2996 RMK A01 T01960139  RH  073%=      5-min Rain = 0
KHES 250530Z 17011G16KT 20/14 A2996 RMK A01 T01950139  RH  073%=      5-min Rain = 0
KHES 250535Z 17011G16KT 19/14 A2996 RMK A01 T01930138  RH  074%=      5-min Rain = 0
KHES 250540Z 17011G17KT 19/14 A2996 RMK A01 T01930139  RH  074%=      5-min Rain = 0
KHES 250545Z 17012KT 19/14 A2996 RMK A01 T01920139  RH  075%=      5-min Rain = 0
KHES 250550Z 17012G18KT 19/14 A2997 RMK A01 T01910140  RH  075%=      5-min Rain = 0
KHES 250555Z 18012G17KT 19/14 A2997 RMK A01 T01900140  RH  076%=      5-min Rain = 0
KHES 250600Z 18013G18KT 19/14 A2998 RMK A01 T01890141  RH  077%=      5-min Rain = 0
KHES 250605Z 17012G18KT 19/14 A2998 RMK A01 T01890144  RH  078%=      5-min Rain = 0
KHES 250610Z 17014G20KT 19/15 A2998 RMK A01 T01900146  RH  079%=      5-min Rain = 0
KHES 250615Z 16014G20KT 19/15 A2997 RMK A01 T01910148  RH  080%=      5-min Rain = 0
KHES 250620Z 17013G18KT 19/15 A2998 RMK A01 T01920150  RH  080%=      5-min Rain = 0
KHES 250625Z 17013KT 19/15 A2998 RMK A01 T01920151  RH  081%=      5-min Rain = 0
KHES 250630Z 17014G21KT 19/15 A2997 RMK A01 T01920153  RH  082%=      5-min Rain = 0
KHES 250635Z 17014G20KT 19/15 A2997 RMK A01 T01920153  RH  082%=      5-min Rain = 0
KHES 250640Z 17014G19KT 19/15 A2997 RMK A01 T01910154  RH  083%=      5-min Rain = 0
KHES 250645Z 17013KT 19/15 A2997 RMK A01 T01910154  RH  083%=      5-min Rain = 0
KHES 250650Z 18013G18KT 19/16 A2997 RMK A01 T01910155  RH  084%=      5-min Rain = 0
KHES 250655Z 17012KT 19/16 A2997 RMK A01 T01900156  RH  084%=      5-min Rain = 0
KHES 250700Z 17012G17KT 19/16 A2997 RMK A01 T01890156  RH  085%=      5-min Rain = 0
KHES 250705Z 17012KT 19/16 A2997 RMK A01 T01910158  RH  085%=      5-min Rain = 0
KHES 250710Z 17012G18KT 19/16 A2997 RMK A01 T01920159  RH  085%=      5-min Rain = 0
KHES 250715Z 17012G17KT 19/16 A2997 RMK A01 T01930159  RH  085%=      5-min Rain = 0
KHES 250720Z 17014KT 19/16 A2997 RMK A01 T01930160  RH  085%=      5-min Rain = 0
KHES 250725Z 17015KT 19/16 A2997 RMK A01 T01940160  RH  085%=      5-min Rain = 0
KHES 250730Z 17013G20KT 19/16 A2997 RMK A01 T01940160  RH  085%=      5-min Rain = 0
KHES 250735Z 17013G21KT 19/16 A2997 RMK A01 T01930160  RH  085%=      5-min Rain = 0
KHES 250740Z 16012G18KT 19/16 A2997 RMK A01 T01920160  RH  086%=      5-min Rain = 0
KHES 250745Z 17012G17KT 19/16 A2997 RMK A01 T01910160  RH  086%=      5-min Rain = 0
KHES 250750Z 17012KT 19/16 A2997 RMK A01 T01900160  RH  086%=      5-min Rain = 0
KHES 250755Z 17011KT 19/16 A2996 RMK A01 T01890160  RH  087%=      5-min Rain = 0
KHES 250800Z 16011KT 19/16 A2996 RMK A01 T01890160  RH  087%=      5-min Rain = 0
KHES 250805Z 17010KT 19/16 A2996 RMK A01 T01880160  RH  088%=      5-min Rain = 0
KHES 250810Z 16010KT 19/16 A2996 RMK A01 T01870160  RH  088%=      5-min Rain = 0
KHES 250815Z 17010KT 19/16 A2996 RMK A01 T01860160  RH  089%=      5-min Rain = 0
KHES 250820Z 16011KT 19/16 A2996 RMK A01 T01860160  RH  089%=      5-min Rain = 0
KHES 250825Z 16009KT 19/16 A2996 RMK A01 T01850160  RH  089%=      5-min Rain = 0
KHES 250830Z 16010KT 19/16 A2996 RMK A01 T01850160  RH  090%=      5-min Rain = 0
KHES 250835Z 16010KT 19/16 A2996 RMK A01 T01850160  RH  090%=      5-min Rain = 0
KHES 250840Z 16011KT 19/16 A2996 RMK A01 T01850160  RH  090%=      5-min Rain = 0
KHES 250845Z 16011KT 19/16 A2996 RMK A01 T01850160  RH  090%=      5-min Rain = 0
KHES 250850Z 16010KT 18/16 A2997 RMK A01 T01840160  RH  090%=      5-min Rain = 0
KHES 250855Z 16010KT 18/16 A2996 RMK A01 T01830160  RH  091%=      5-min Rain = 0
KHES 250900Z 16011KT 18/16 A2997 RMK A01 T01820160  RH  091%=      5-min Rain = 0
KHES 250905Z 16010G15KT 18/16 A2997 RMK A01 T01820160  RH  092%=      5-min Rain = 0
KHES 250910Z 16011KT 18/16 A2997 RMK A01 T01820161  RH  092%=      5-min Rain = 0
KHES 250915Z 16012G18KT 18/16 A2996 RMK A01 T01820161  RH  092%=      5-min Rain = 0
KHES 250920Z 16011KT 18/16 A2996 RMK A01 T01820162  RH  092%=      5-min Rain = 0
KHES 250925Z 16010KT 18/16 A2996 RMK A01 T01830162  RH  092%=      5-min Rain = 0
KHES 250930Z 16008KT 18/16 A2996 RMK A01 T01830162  RH  092%=      5-min Rain = 0
KHES 250935Z 16008KT 18/16 A2996 RMK A01 T01830161  RH  092%=      5-min Rain = 0
KHES 250940Z 16010KT 18/16 A2996 RMK A01 T01820161  RH  092%=      5-min Rain = 0
KHES 250945Z 16009G14KT 18/16 A2996 RMK A01 T01820161  RH  092%=      5-min Rain = 0
KHES 250950Z 16010KT 18/16 A2997 RMK A01 T01820161  RH  092%=      5-min Rain = 0
KHES 250955Z 16010KT 18/16 A2997 RMK A01 T01820161  RH  092%=      5-min Rain = 0
KHES 251000Z 16010KT 18/16 A2997 RMK A01 T01810160  RH  092%=      5-min Rain = 0
KHES 251005Z 17009KT 18/16 A2997 RMK A01 T01810160  RH  092%=      5-min Rain = 0
KHES 251010Z 16009KT 18/16 A2997 RMK A01 T01810160  RH  092%=      5-min Rain = 0
KHES 251015Z 16008KT 18/16 A2997 RMK A01 T01810160  RH  092%=      5-min Rain = 0
KHES 251020Z 16007KT 18/16 A2997 RMK A01 T01810160  RH  092%=      5-min Rain = 0
KHES 251025Z 16008KT 18/16 A2997 RMK A01 T01810160  RH  092%=      5-min Rain = 0
KHES 251030Z 16008KT 18/16 A2997 RMK A01 T01810160  RH  092%=      5-min Rain = 0
KHES 251035Z 16009KT 18/16 A2997 RMK A01 T01810160  RH  092%=      5-min Rain = 0
KHES 251040Z 16007KT 18/16 A2998 RMK A01 T01810160  RH  092%=      5-min Rain = 0
KHES 251045Z 16008KT 18/16 A2998 RMK A01 T01810160  RH  092%=      5-min Rain = 0
KHES 251050Z 16008KT 18/16 A2998 RMK A01 T01810160  RH  092%=      5-min Rain = 0
KHES 251055Z 16009KT 18/16 A2998 RMK A01 T01810160  RH  092%=      5-min Rain = 0
KHES 251100Z 16008KT 18/16 A2998 RMK A01 T01800160  RH  092%=      5-min Rain = 0
KHES 251105Z 16009KT 18/16 A2998 RMK A01 T01800160  RH  092%=      5-min Rain = 0
KHES 251110Z 16008KT 18/16 A2999 RMK A01 T01810160  RH  092%=      5-min Rain = 0
KHES 251115Z 16008KT 18/16 A2999 RMK A01 T01810160  RH  092%=      5-min Rain = 0
KHES 251120Z 16007KT 18/16 A2999 RMK A01 T01800160  RH  092%=      5-min Rain = 0
KHES 251125Z 16008KT 18/16 A2999 RMK A01 T01810160  RH  092%=      5-min Rain = 0
KHES 251130Z 16009KT 18/16 A2999 RMK A01 T01810161  RH  092%=      5-min Rain = 0
KHES 251135Z 16008KT 18/16 A2999 RMK A01 T01810161  RH  092%=      5-min Rain = 0
KHES 251140Z 16009KT 18/16 A2999 RMK A01 T01820161  RH  092%=      5-min Rain = 0
KHES 251145Z 16008KT 18/16 A2999 RMK A01 T01820162  RH  092%=      5-min Rain = 0
KHES 251150Z 16009KT 18/16 A2999 RMK A01 T01830162  RH  092%=      5-min Rain = 0
KHES 251155Z 16009KT 18/16 A30 RMK A01 T01830163  RH  092%=      5-min Rain = 0
KHES 251200Z 16009KT 18/16 A30 RMK A01 T01840163  RH  092%=      5-min Rain = 0
KHES 251205Z 16009KT 19/16 A30 RMK A01 T01850164  RH  092%=      5-min Rain = 0
KHES 251210Z 16010KT 19/16 A30 RMK A01 T01850164  RH  092%=      5-min Rain = 0
KHES 251215Z 16009KT 19/17 A30 RMK A01 T01860165  RH  092%=      5-min Rain = 0
KHES 251220Z 16010KT 19/17 A30 RMK A01 T01860165  RH  092%=      5-min Rain = 0
KHES 251225Z 17010KT 19/17 A30 RMK A01 T01870166  RH  092%=      5-min Rain = 0
KHES 251230Z 17010KT 19/17 A3001 RMK A01 T01870166  RH  092%=      5-min Rain = 0
KHES 251235Z 16010G15KT 19/17 A3001 RMK A01 T01880167  RH  092%=      5-min Rain = 0
KHES 251240Z 17010G15KT 19/17 A3001 RMK A01 T01880167  RH  092%=      5-min Rain = 0
KHES 251245Z 17010KT 19/17 A3001 RMK A01 T01890168  RH  092%=      5-min Rain = 0
KHES 251250Z 17011KT 19/17 A3001 RMK A01 T01900169  RH  092%=      5-min Rain = 0
KHES 251255Z 17009KT 19/17 A3001 RMK A01 T01910169  RH  092%=      5-min Rain = 0
KHES 251300Z 17012KT 19/17 A3001 RMK A01 T01910170  RH  092%=      5-min Rain = 0
KHES 251305Z 17012KT 19/17 A3001 RMK A01 T01920169  RH  091%=      5-min Rain = 0
KHES 251310Z 17011KT 19/17 A3002 RMK A01 T01910169  RH  092%=      5-min Rain = 0
KHES 251315Z 17009KT 19/17 A3002 RMK A01 T01910169  RH  092%=      5-min Rain = 0
KHES 251320Z 17010KT 19/17 A3002 RMK A01 T01910169  RH  092%=      5-min Rain = 0
KHES 251325Z 18010KT 19/17 A3002 RMK A01 T01910169  RH  092%=      5-min Rain = 0
KHES 251330Z 18010KT 19/17 A3002 RMK A01 T01910170  RH  092%=      5-min Rain = 0
KHES 251335Z 18011KT 19/17 A3002 RMK A01 T01920170  RH  091%=      5-min Rain = 0
KHES 251340Z 18011KT 19/17 A3003 RMK A01 T01930170  RH  091%=      5-min Rain = 0
KHES 251345Z 18008KT 19/17 A3003 RMK A01 T01940171  RH  091%=      5-min Rain = 0
KHES 251350Z 18009KT 20/17 A3003 RMK A01 T01950171  RH  090%=      5-min Rain = 0
KHES 251355Z 18008KT 20/17 A3003 RMK A01 T01960171  RH  090%=      5-min Rain = 0
KHES 251400Z 18009KT 20/17 A3003 RMK A01 T01950171  RH  091%=      5-min Rain = 0
KHES 251405Z 18010KT 20/17 A3003 RMK A01 T01970173  RH  090%=      5-min Rain = 0
KHES 251410Z 19011G16KT 20/17 A3003 RMK A01 T01960173  RH  091%=      5-min Rain = 0
KHES 251415Z 18010KT 20/17 A3003 RMK A01 T01970173  RH  090%=      5-min Rain = 0
KHES 251420Z 18010G15KT 20/17 A3003 RMK A01 T01990173  RH  089%=      5-min Rain = 0
KHES 251425Z 18010KT 20/17 A3003 RMK A01 T02020174  RH  088%=      5-min Rain = 0
KHES 251430Z 18009KT 20/17 A3004 RMK A01 T02040174  RH  087%=      5-min Rain = 0
KHES 251435Z 17010KT 21/18 A3003 RMK A01 T02080175  RH  085%=      5-min Rain = 0
KHES 251440Z 18010KT 21/18 A3003 RMK A01 T02100175  RH  085%=      5-min Rain = 0
KHES 251445Z 18012KT 21/17 A3003 RMK A01 T02120174  RH  083%=      5-min Rain = 0
KHES 251450Z 17012KT 21/17 A3004 RMK A01 T02110174  RH  083%=      5-min Rain = 0
KHES 251455Z 18011G16KT 21/17 A3004 RMK A01 T02100174  RH  084%=      5-min Rain = 0
KHES 251500Z 17012KT 21/17 A3004 RMK A01 T02100173  RH  083%=      5-min Rain = 0
KHES 251505Z 18012KT 21/17 A3004 RMK A01 T02080172  RH  084%=      5-min Rain = 0
KHES 251510Z 18010KT 21/17 A3004 RMK A01 T02090172  RH  084%=      5-min Rain = 0
KHES 251515Z 18009KT 21/17 A3004 RMK A01 T02110172  RH  083%=      5-min Rain = 0
KHES 251520Z 18010KT 21/17 A3003 RMK A01 T02130172  RH  081%=      5-min Rain = 0
KHES 251525Z 18011KT 22/17 A3003 RMK A01 T02170173  RH  080%=      5-min Rain = 0
KHES 251530Z 18011G16KT 22/17 A3003 RMK A01 T02200172  RH  078%=      5-min Rain = 0
KHES 251535Z 17011KT 22/17 A3003 RMK A01 T02210171  RH  077%=      5-min Rain = 0
KHES 251540Z 17011G17KT 23/17 A3002 RMK A01 T02260171  RH  075%=      5-min Rain = 0
KHES 251545Z 18014KT 23/17 A3002 RMK A01 T02250169  RH  074%=      5-min Rain = 0
KHES 251550Z 17012G17KT 23/17 A3002 RMK A01 T02250169  RH  074%=      5-min Rain = 0
KHES 251555Z 18013KT 23/17 A3002 RMK A01 T02260168  RH  073%=      5-min Rain = 0
KHES 251600Z 18012G17KT 23/17 A3002 RMK A01 T02290168  RH  072%=      5-min Rain = 0
KHES 251605Z 17011G18KT 24/17 A3002 RMK A01 T02350170  RH  070%=      5-min Rain = 0
KHES 251610Z 18010G15KT 24/17 A3002 RMK A01 T02390169  RH  068%=      5-min Rain = 0
KHES 251615Z 18013KT 23/17 A3002 RMK A01 T02330168  RH  071%=      5-min Rain = 0
KHES 251620Z 18013KT 23/17 A3002 RMK A01 T02330167  RH  070%=      5-min Rain = 0
KHES 251625Z 18012KT 23/17 A3002 RMK A01 T02320168  RH  071%=      5-min Rain = 0
KHES 251630Z 18012KT 23/17 A3002 RMK A01 T02320169  RH  071%=      5-min Rain = 0
KHES 251635Z 18012KT 24/17 A3002 RMK A01 T02350170  RH  070%=      5-min Rain = 0
KHES 251640Z 18013KT 24/17 A3002 RMK A01 T02380169  RH  069%=      5-min Rain = 0
KHES 251645Z 18012G20KT 24/17 A3002 RMK A01 T02360170  RH  070%=      5-min Rain = 0
KHES 251650Z 19011KT 23/17 A3003 RMK A01 T02330168  RH  070%=      5-min Rain = 0
KHES 251655Z 18011KT 23/17 A3002 RMK A01 T02290169  RH  072%=      5-min Rain = 0
KHES 251700Z 18012KT 23/17 A3002 RMK A01 T02310172  RH  073%=      5-min Rain = 0
KHES 251705Z 17011G17KT 24/17 A3002 RMK A01 T02350172  RH  071%=      5-min Rain = 0
KHES 251710Z 17015G21KT 24/17 A3002 RMK A01 T02380172  RH  070%=      5-min Rain = 0
KHES 251715Z 18013G18KT 24/17 A3003 RMK A01 T02430173  RH  068%=      5-min Rain = 0
KHES 251720Z 17015KT 24/17 A3002 RMK A01 T02420173  RH  069%=      5-min Rain = 0
KHES 251725Z 16013KT 25/18 A3002 RMK A01 T02450175  RH  068%=      5-min Rain = 0
KHES 251730Z 17014KT 25/17 A3002 RMK A01 T02480174  RH  067%=      5-min Rain = 0
KHES 251735Z 16012KT 25/17 A3002 RMK A01 T02470174  RH  067%=      5-min Rain = 0
KHES 251740Z 17011KT 25/17 A3001 RMK A01 T02510173  RH  065%=      5-min Rain = 0
KHES 251745Z 16013G19KT 25/17 A30 RMK A01 T02490167  RH  063%=      5-min Rain = 0
KHES 251750Z 17012G18KT 25/17 A2999 RMK A01 T02540169  RH  062%=      5-min Rain = 0
KHES 251755Z 16012G17KT 26/17 A30 RMK A01 T02550170  RH  062%=      5-min Rain = 0
KHES 251800Z 16014G19KT 26/17 A30 RMK A01 T02590170  RH  061%=      5-min Rain = 0
KHES 251805Z 16013G21KT 25/17 A30 RMK A01 T02540170  RH  063%=      5-min Rain = 0
KHES 251810Z 16015G21KT 25/17 A2999 RMK A01 T02520169  RH  063%=      5-min Rain = 0
KHES 251815Z 16013G21KT 26/17 A2999 RMK A01 T02580170  RH  061%=      5-min Rain = 0
KHES 251820Z 16013G19KT 26/17 A2999 RMK A01 T02600172  RH  061%=      5-min Rain = 0
KHES 251825Z 17014G19KT 26/17 A2998 RMK A01 T02590169  RH  061%=      5-min Rain = 0
KHES 251830Z 15015G20KT 25/17 A2998 RMK A01 T02460168  RH  065%=      5-min Rain = 0
KHES 251835Z 15015G21KT 24/17 A2997 RMK A01 T02400170  RH  068%=      5-min Rain = 0
KHES 251840Z 15015G22KT 24/17 A2996 RMK A01 T02400171  RH  068%=      5-min Rain = 0
KHES 251845Z 15016G24KT 24/17 A2996 RMK A01 T02350171  RH  071%=      5-min Rain = 0
KHES 251850Z 15016G24KT 23/17 A2997 RMK A01 T02270171  RH  074%=      5-min Rain = 0
KHES 251855Z 15019G24KT 22/17 A2997 RMK A01 T02240171  RH  076%=      5-min Rain = 0
KHES 251900Z 15017G22KT 22/17 A2997 RMK A01 T02230172  RH  077%=      5-min Rain = 0
KHES 251905Z 15017G25KT 22/17 A2997 RMK A01 T02220173  RH  078%=      5-min Rain = 0
KHES 251910Z 15017G24KT 22/17 A2997 RMK A01 T02180173  RH  080%=      5-min Rain = 0
KHES 251915Z 15016G23KT 22/17 A2997 RMK A01 T02160174  RH  081%=      5-min Rain = 0
KHES 251920Z 16019G29KT 21/17 A2997 RMK A01 T02140174  RH  082%=      5-min Rain = 0
KHES 251925Z 15016G24KT 21/17 A2995 RMK A01 T02110174  RH  084%=      5-min Rain = 0
KHES 251930Z 15015G20KT 21/18 A2994 RMK A01 T02080175  RH  086%=      5-min Rain = 0
KHES 251935Z 15012G19KT 21/17 A2994 RMK A01 T02070174  RH  086%=      5-min Rain = 0
KHES 251940Z 14012G18KT 21/17 A2994 RMK A01 T02070174  RH  086%=      5-min Rain = 0
KHES 251945Z 14011KT 21/17 A2995 RMK A01 T02070174  RH  085%=      5-min Rain = 0
KHES 251950Z 15012G17KT 21/17 A2996 RMK A01 T02080174  RH  085%=      5-min Rain = 0
KHES 251955Z 17013KT 21/17 A2997 RMK A01 T02080174  RH  085%=      5-min Rain = 0
KHES 252000Z 16011G18KT 21/18 A2997 RMK A01 T02080175  RH  086%=      5-min Rain = 0
KHES 252005Z 18010G15KT 21/18 A2998 RMK A01 T02060177  RH  088%=      5-min Rain = 0
KHES 252010Z 15008KT 21/18 A2997 RMK A01 T02050179  RH  089%=      5-min Rain = 0
KHES 252015Z 17008G14KT 21/18 A2998 RMK A01 T02050180  RH  090%=      5-min Rain = 0
KHES 252020Z 21019G35KT 20/17 A3001 RMK A01 T01990169  RH  087%=      5-min Rain = 0
KHES 252025Z 25020G36KT 15/13 A3003 RMK A01 T01500131  RH  092%=      5-min Rain = 0.19
KHES 252030Z 30019G29KT 16/14 A3001 RMK A01 T01560142  RH  095%=      5-min Rain = 0.07
KHES 252035Z 31014G20KT 16/14 A3002 RMK A01 T01580138  RH  092%=      5-min Rain = 0.01
KHES 252040Z 35014KT 15/13 A2999 RMK A01 T01470132  RH  095%=      5-min Rain = 0.03
KHES 252045Z 31004G9KT 15/14 A3001 RMK A01 T01500138  RH  096%=      5-min Rain = 0.09
KHES 252050Z 01006KT 16/14 A2999 RMK A01 T01550144  RH  097%=      5-min Rain = 0.06
KHES 252055Z 01004KT 16/15 A2999 RMK A01 T01640153  RH  098%=      5-min Rain = 0.01
KHES 252100Z 34006KT 18/16 A2997 RMK A01 T01750159  RH  095%=      5-min Rain = 0
KHES 252105Z 31005KT 18/16 A2997 RMK A01 T01830159  RH  090%=      5-min Rain = 0
KHES 252110Z 35002KT 19/16 A2997 RMK A01 T01850156  RH  087%=      5-min Rain = 0
KHES 252115Z 24002KT 19/16 A2996 RMK A01 T01930159  RH  085%=      5-min Rain = 0
KHES 252120Z 17003KT 20/16 A2997 RMK A01 T01970157  RH  081%=      5-min Rain = 0
KHES 252125Z 18003KT 20/16 A2997 RMK A01 T02020163  RH  082%=      5-min Rain = 0
KHES 252130Z 15003KT 21/16 A2996 RMK A01 T02070164  RH  080%=      5-min Rain = 0
KHES 252135Z 14005KT 21/16 A2996 RMK A01 T02090161  RH  078%=      5-min Rain = 0
KHES 252140Z 13007KT 21/16 A2996 RMK A01 T02050155  RH  077%=      5-min Rain = 0
KHES 252145Z 12008KT 21/15 A2995 RMK A01 T02050152  RH  075%=      5-min Rain = 0
KHES 252150Z 12008KT 21/15 A2995 RMK A01 T02050148  RH  073%=      5-min Rain = 0
KHES 252155Z 13009G14KT 21/15 A2995 RMK A01 T02050147  RH  073%=      5-min Rain = 0
KHES 252200Z 14008G13KT 21/15 A2995 RMK A01 T02080150  RH  072%=      5-min Rain = 0
KHES 252205Z 13010KT 21/15 A2994 RMK A01 T02120149  RH  070%=      5-min Rain = 0
KHES 252210Z 12011KT 21/14 A2994 RMK A01 T02110140  RH  066%=      5-min Rain = 0
KHES 252215Z 12011KT 21/14 A2994 RMK A01 T02120141  RH  066%=      5-min Rain = 0
KHES 252220Z 13010G15KT 21/14 A2994 RMK A01 T02140139  RH  065%=      5-min Rain = 0
KHES 252225Z 12010KT 22/14 A2994 RMK A01 T02180142  RH  065%=      5-min Rain = 0
KHES 252230Z 12009G14KT 22/14 A2994 RMK A01 T02200144  RH  065%=      5-min Rain = 0
KHES 252235Z 12009G14KT 23/15 A2994 RMK A01 T02270149  RH  064%=      5-min Rain = 0
KHES 252240Z 13012KT 23/15 A2993 RMK A01 T02290149  RH  063%=      5-min Rain = 0
KHES 252245Z 12013KT 23/15 A2993 RMK A01 T02250151  RH  066%=      5-min Rain = 0
KHES 252250Z 12012G17KT 22/15 A2993 RMK A01 T02240153  RH  067%=      5-min Rain = 0
KHES 252255Z 12012G17KT 23/16 A2993 RMK A01 T02260157  RH  068%=      5-min Rain = 0
KHES 252300Z 12013KT 23/16 A2993 RMK A01 T02270159  RH  068%=      5-min Rain = 0
KHES 252305Z 13012G18KT 23/16 A2992 RMK A01 T02280161  RH  069%=      5-min Rain = 0
KHES 252310Z 13013G18KT 23/17 A2992 RMK A01 T02300167  RH  071%=      5-min Rain = 0
KHES 252315Z 14014G21KT 23/17 A2992 RMK A01 T02300169  RH  072%=      5-min Rain = 0
KHES 252320Z 13015G23KT 23/17 A2993 RMK A01 T02260167  RH  073%=      5-min Rain = 0
KHES 252325Z 14014G21KT 23/17 A2993 RMK A01 T02250166  RH  073%=      5-min Rain = 0
KHES 252330Z 14014G21KT 23/17 A2992 RMK A01 T02260168  RH  073%=      5-min Rain = 0
KHES 252335Z 13013G18KT 23/17 A2993 RMK A01 T02270168  RH  073%=      5-min Rain = 0
KHES 252340Z 13012G18KT 23/17 A2993 RMK A01 T02260167  RH  072%=      5-min Rain = 0
KHES 252345Z 13013G19KT 22/16 A2993 RMK A01 T02240164  RH  072%=      5-min Rain = 0
KHES 252350Z 13013G18KT 22/16 A2993 RMK A01 T02240161  RH  071%=      5-min Rain = 0
KHES 252355Z 13014G21KT 23/16 A2994 RMK A01 T02250160  RH  070%=      5-min Rain = 0
KHES 260000Z 14015G21KT 23/15 A2994 RMK A01 T02250152  RH  067%=      5-min Rain = 0
KHES 260005Z 15017G24KT 23/13 A2995 RMK A01 T02270134  RH  058%=      5-min Rain = 0
KHES 260010Z 13019G29KT 23/14 A2994 RMK A01 T02250141  RH  062%=      5-min Rain = 0
KHES 260015Z 15020G26KT 22/15 A2994 RMK A01 T02150146  RH  068%=      5-min Rain = 0
KHES 260020Z 14016G23KT 21/15 A2994 RMK A01 T02110148  RH  070%=      5-min Rain = 0
KHES 260025Z 13011G18KT 21/15 A2993 RMK A01 T02090147  RH  070%=      5-min Rain = 0
KHES 260030Z 14011G16KT 21/15 A2993 RMK A01 T02110147  RH  070%=      5-min Rain = 0
KHES 260035Z 14012G19KT 21/15 A2993 RMK A01 T02110146  RH  069%=      5-min Rain = 0
KHES 260040Z 14010G15KT 21/14 A2993 RMK A01 T02090144  RH  070%=      5-min Rain = 0
KHES 260045Z 14010G15KT 21/14 A2993 RMK A01 T02090144  RH  069%=      5-min Rain = 0
KHES 260050Z 15010KT 20/14 A2993 RMK A01 T02040142  RH  070%=      5-min Rain = 0
KHES 260055Z 14010KT 20/14 A2993 RMK A01 T02010142  RH  072%=      5-min Rain = 0
KHES 260100Z 15008KT 20/14 A2993 RMK A01 T02030144  RH  072%=      5-min Rain = 0
KHES 260105Z 15009KT 21/15 A2993 RMK A01 T02060145  RH  071%=      5-min Rain = 0
KHES 260110Z 14009G14KT 21/15 A2993 RMK A01 T02080146  RH  071%=      5-min Rain = 0
KHES 260115Z 15010G15KT 21/15 A2993 RMK A01 T02080146  RH  071%=      5-min Rain = 0
KHES 260120Z 14010G15KT 21/15 A2993 RMK A01 T02060147  RH  072%=      5-min Rain = 0
KHES 260125Z 14009KT 20/15 A2993 RMK A01 T02040147  RH  073%=      5-min Rain = 0
KHES 260130Z 14008G13KT 20/15 A2993 RMK A01 T02030147  RH  073%=      5-min Rain = 0
KHES 260135Z 14009G14KT 20/14 A2994 RMK A01 T02020143  RH  072%=      5-min Rain = 0
KHES 260140Z 13008G13KT 20/14 A2994 RMK A01 T02000140  RH  071%=      5-min Rain = 0
KHES 260145Z 13009KT 20/14 A2994 RMK A01 T02000137  RH  070%=      5-min Rain = 0
KHES 260150Z 12008G13KT 20/14 A2994 RMK A01 T01990136  RH  070%=      5-min Rain = 0
KHES 260155Z 12008KT 20/13 A2994 RMK A01 T01960134  RH  070%=      5-min Rain = 0
KHES 260200Z 12006KT 20/13 A2994 RMK A01 T01950134  RH  070%=      5-min Rain = 0
KHES 260205Z 13005KT 19/13 A2994 RMK A01 T01930133  RH  071%=      5-min Rain = 0
KHES 260210Z 14008KT 19/13 A2994 RMK A01 T01930130  RH  070%=      5-min Rain = 0
KHES 260215Z 14007KT 19/13 A2994 RMK A01 T01920129  RH  069%=      5-min Rain = 0
KHES 260220Z 14007KT 19/13 A2994 RMK A01 T01910130  RH  070%=      5-min Rain = 0
KHES 260225Z 14008G13KT 19/13 A2994 RMK A01 T01920130  RH  070%=      5-min Rain = 0
KHES 260230Z 14008G13KT 19/13 A2994 RMK A01 T01920130  RH  070%=      5-min Rain = 0
KHES 260235Z 14009G14KT 19/13 A2994 RMK A01 T01920133  RH  071%=      5-min Rain = 0
KHES 260240Z 15009KT 19/14 A2994 RMK A01 T01920136  RH  073%=      5-min Rain = 0
KHES 260245Z 15010G15KT 19/14 A2994 RMK A01 T01910139  RH  075%=      5-min Rain = 0
KHES 260250Z 15010KT 19/14 A2994 RMK A01 T01900141  RH  076%=      5-min Rain = 0
KHES 260255Z 14010KT 19/14 A2994 RMK A01 T01880142  RH  078%=      5-min Rain = 0
KHES 260300Z 14011KT 19/14 A2994 RMK A01 T01870144  RH  079%=      5-min Rain = 0
KHES 260305Z 15009G14KT 19/15 A2994 RMK A01 T01860146  RH  081%=      5-min Rain = 0
KHES 260310Z 15010G16KT 18/15 A2994 RMK A01 T01840148  RH  083%=      5-min Rain = 0
KHES 260315Z 15011KT 18/15 A2994 RMK A01 T01830150  RH  085%=      5-min Rain = 0
KHES 260320Z 15012G17KT 18/15 A2994 RMK A01 T01820151  RH  086%=      5-min Rain = 0
KHES 260325Z 16011KT 18/15 A2994 RMK A01 T01810153  RH  087%=      5-min Rain = 0
KHES 260330Z 16011G16KT 18/15 A2994 RMK A01 T01810154  RH  089%=      5-min Rain = 0
KHES 260335Z 16010G17KT 18/16 A2994 RMK A01 T01800156  RH  090%=      5-min Rain = 0
KHES 260340Z 16012KT 18/16 A2995 RMK A01 T01820158  RH  090%=      5-min Rain = 0
KHES 260345Z 15013G19KT 18/16 A2995 RMK A01 T01840160  RH  090%=      5-min Rain = 0
KHES 260350Z 16010KT 18/16 A2995 RMK A01 T01840161  RH  091%=      5-min Rain = 0
KHES 260355Z 16010KT 19/16 A2995 RMK A01 T01850162  RH  091%=      5-min Rain = 0
KHES 260400Z 17010G16KT 19/16 A2995 RMK A01 T01860164  RH  091%=      5-min Rain = 0
KHES 260405Z 16013KT 19/17 A2995 RMK A01 T01880165  RH  091%=      5-min Rain = 0
KHES 260410Z 16012KT 19/17 A2995 RMK A01 T01890165  RH  090%=      5-min Rain = 0
KHES 260415Z 17009KT 19/17 A2995 RMK A01 T01890165  RH  090%=      5-min Rain = 0
KHES 260420Z 16010KT 19/17 A2996 RMK A01 T01880165  RH  091%=      5-min Rain = 0
KHES 260425Z 17010KT 19/17 A2996 RMK A01 T01880165  RH  091%=      5-min Rain = 0
KHES 260430Z 16010G15KT 19/17 A2995 RMK A01 T01890166  RH  091%=      5-min Rain = 0
KHES 260435Z 17011G16KT 19/17 A2995 RMK A01 T01900166  RH  090%=      5-min Rain = 0
KHES 260440Z 17009G14KT 19/17 A2996 RMK A01 T01900167  RH  091%=      5-min Rain = 0
KHES 260445Z 18010KT 19/17 A2996 RMK A01 T01910167  RH  091%=      5-min Rain = 0
KHES 260450Z 17011G17KT 19/17 A2996 RMK A01 T01910167  RH  090%=      5-min Rain = 0
KHES 260455Z 17011KT 19/17 A2996 RMK A01 T01920168  RH  090%=      5-min Rain = 0

Page generated in 0.0091 seconds.